Time;durP1;ratioP1;P1;durP2;ratioP2;P2;SDS_P1;SDS_P2;PMS_P1;PMS_P2;Temp;Humidity;BMP_temperature;BMP_pressure;BME280_temperature;BME280_humidity;BME280_pressure;Samples;Min_cycle;Max_cycle;Signal;HPM_P1;HPM_P2
2022/06/03 00:01:43;;;;;;;0.70;0.70;;;23.60;48.40;;;;;;5030403;28;20504;-74
2022/06/03 00:04:32;;;;;;;0.60;0.60;;;24.70;50.60;;;;;;5027436;28;20903;-75
2022/06/03 00:07:16;;;;;;;0.50;0.50;;;23.90;48.70;;;;;;5007940;28;20510;-75
2022/06/03 00:09:53;;;;;;;0.70;0.70;;;24.90;49.20;;;;;;5007944;28;21081;-75
2022/06/03 00:12:37;;;;;;;0.67;0.67;;;23.50;49.80;;;;;;5022056;28;20514;-75
2022/06/03 00:15:11;;;;;;;1.13;0.80;;;23.50;48.40;;;;;;5027627;28;20400;-75
2022/06/03 00:17:50;;;;;;;0.50;0.43;;;23.50;48.50;;;;;;5027587;28;20460;-75
2022/06/03 00:20:49;;;;;;;0.60;0.50;;;23.50;48.40;;;;;;5027561;28;20455;-75
2022/06/03 00:23:58;;;;;;;0.60;0.60;;;23.50;48.40;;;;;;5027344;28;20798;-75
2022/06/03 00:26:25;;;;;;;0.83;0.50;;;23.50;48.50;;;;;;5027120;28;20439;-75
2022/06/03 00:28:53;;;;;;;0.60;0.50;;;23.70;49.70;;;;;;5027233;28;20587;-75
2022/06/03 00:31:32;;;;;;;0.60;0.60;;;23.50;49.90;;;;;;5027675;28;20443;-75
2022/06/03 00:34:19;;;;;;;0.60;0.60;;;23.50;49.70;;;;;;5027619;28;20846;-75
2022/06/03 00:37:14;;;;;;;0.50;0.50;;;23.60;48.50;;;;;;5027204;28;20412;-74
2022/06/03 00:39:47;;;;;;;0.60;0.60;;;23.50;49.90;;;;;;5035524;28;20928;-75
2022/06/03 00:42:44;;;;;;;0.70;0.70;;;23.50;48.40;;;;;;5027177;28;20940;-75
2022/06/03 00:45:26;;;;;;;0.80;0.80;;;23.50;48.40;;;;;;5027055;28;20404;-75
2022/06/03 00:48:10;;;;;;;0.60;0.60;;;23.50;48.50;;;;;;5027035;28;20404;-75
2022/06/03 00:51:10;;;;;;;0.60;0.60;;;23.50;49.80;;;;;;5027096;28;20518;-75
2022/06/03 00:54:01;;;;;;;0.60;0.60;;;23.50;48.30;;;;;;5026945;28;20443;-75
2022/06/03 00:56:26;;;;;;;0.70;0.70;;;23.50;48.40;;;;;;5027088;28;20400;-75
2022/06/03 00:59:27;;;;;;;0.50;0.50;;;24.60;50.20;;;;;;5026770;28;20445;-74
2022/06/03 01:02:34;;;;;;;0.67;0.50;;;23.50;48.30;;;;;;5040708;28;20557;-75
2022/06/03 01:05:08;;;;;;;0.50;0.50;;;23.50;48.40;;;;;;5025870;28;21011;-75
2022/06/03 01:08:08;;;;;;;1.50;0.50;;;23.50;48.30;;;;;;5025962;28;20423;-75
2022/06/03 01:10:40;;;;;;;0.70;0.70;;;23.50;48.30;;;;;;5026440;28;20427;-74
2022/06/03 01:13:23;;;;;;;0.60;0.50;;;23.50;48.40;;;;;;5026879;28;20868;-75
2022/06/03 01:16:08;;;;;;;0.50;0.50;;;23.40;49.50;;;;;;5026737;28;20739;-75
2022/06/03 01:18:59;;;;;;;0.60;0.60;;;23.50;48.30;;;;;;5026366;28;20431;-74
2022/06/03 01:21:42;;;;;;;0.60;0.60;;;23.50;48.30;;;;;;5026501;28;20428;-75
2022/06/03 01:24:35;;;;;;;0.87;0.70;;;23.50;48.30;;;;;;5006814;28;20901;-75
2022/06/03 01:27:00;;;;;;;0.70;0.70;;;23.50;49.50;;;;;;5006773;28;20409;-75
2022/06/03 01:29:33;;;;;;;1.43;0.73;;;23.50;49.50;;;;;;5006463;28;20418;-75
2022/06/03 01:32:19;;;;;;;0.60;0.60;;;23.50;49.40;;;;;;5006551;28;20215;-74
2022/06/03 01:35:10;;;;;;;0.77;0.77;;;23.50;48.30;;;;;;5008693;28;20428;-74
2022/06/03 01:37:50;;;;;;;0.80;0.80;;;24.00;49.90;;;;;;5026643;28;20451;-74
2022/06/03 01:40:21;;;;;;;0.73;0.73;;;23.50;48.20;;;;;;5026338;28;20491;-75
2022/06/03 01:43:08;;;;;;;0.60;0.60;;;22.00;48.50;;;;;;5026690;28;20448;-74
2022/06/03 01:46:15;;;;;;;0.60;0.60;;;23.50;48.10;;;;;;5029816;28;20395;-75
2022/06/03 01:49:18;;;;;;;0.60;0.60;;;23.50;48.20;;;;;;5029866;28;20565;-75
2022/06/03 01:52:08;;;;;;;0.70;0.70;;;23.50;48.30;;;;;;5029874;28;20463;-74
2022/06/03 01:54:46;;;;;;;0.50;0.50;;;23.50;48.20;;;;;;5029623;28;20404;-74
2022/06/03 01:57:29;;;;;;;0.67;0.67;;;23.40;48.00;;;;;;5029550;28;20856;-74
2022/06/03 02:00:07;;;;;;;0.60;0.60;;;23.30;69.30;;;;;;5029896;28;20414;-75
2022/06/03 02:03:08;;;;;;;0.70;0.70;;;23.50;48.10;;;;;;5029627;28;20452;-75
2022/06/03 02:06:01;;;;;;;0.50;0.50;;;23.40;48.00;;;;;;5029451;28;20415;-75
2022/06/03 02:08:45;;;;;;;0.73;0.60;;;23.50;48.20;;;;;;5029581;28;20404;-74
2022/06/03 02:11:10;;;;;;;0.60;0.60;;;23.50;49.30;;;;;;5029340;28;21001;-75
2022/06/03 02:13:50;;;;;;;0.70;0.70;;;23.50;49.60;;;;;;5028777;28;20584;-75
2022/06/03 02:16:41;;;;;;;0.60;0.60;;;23.60;49.20;;;;;;5029108;28;20475;-74
2022/06/03 02:19:25;;;;;;;0.97;0.60;;;23.40;47.90;;;;;;5028939;28;20431;-75
2022/06/03 02:22:08;;;;;;;0.60;0.50;;;23.40;47.90;;;;;;5028376;28;20526;-75
2022/06/03 02:25:04;;;;;;;0.70;0.70;;;23.50;48.00;;;;;;5027908;28;20774;-74
2022/06/03 02:28:06;;;;;;;0.70;0.70;;;23.50;48.00;;;;;;5028937;28;20416;-75
2022/06/03 02:30:53;;;;;;;0.50;0.40;;;23.40;47.90;;;;;;5028925;28;21172;-75
2022/06/03 02:33:36;;;;;;;1.20;0.80;;;23.40;47.90;;;;;;5028910;28;20416;-75
2022/06/03 02:36:32;;;;;;;0.60;0.60;;;24.30;48.30;;;;;;5028518;28;20434;-75
2022/06/03 02:39:31;;;;;;;0.60;0.60;;;23.30;47.80;;;;;;5029219;28;20403;-75
2022/06/03 02:42:26;;;;;;;0.50;0.50;;;23.40;47.90;;;;;;5028861;28;20432;-75
2022/06/03 02:45:21;;;;;;;0.50;0.40;;;23.50;47.90;;;;;;5028993;28;20478;-74
2022/06/03 02:47:56;;;;;;;0.70;0.70;;;23.50;48.00;;;;;;5028830;28;20435;-74
2022/06/03 02:50:46;;;;;;;0.63;0.63;;;23.40;47.90;;;;;;5028755;28;20415;-75
2022/06/03 02:53:38;;;;;;;0.50;0.50;;;23.40;49.40;;;;;;5028607;28;20488;-75
2022/06/03 02:56:40;;;;;;;0.60;0.60;;;23.40;47.80;;;;;;5027767;28;20435;-75
2022/06/03 02:59:18;;;;;;;0.57;0.57;;;23.70;49.20;;;;;;5029116;28;20499;-76
2022/06/03 03:02:05;;;;;;;3.50;0.77;;;23.40;47.80;;;;;;5029482;28;20452;-75
2022/06/03 03:04:49;;;;;;;0.57;0.57;;;23.40;49.30;;;;;;5028879;28;20454;-75
2022/06/03 03:07:45;;;;;;;0.53;0.53;;;23.40;47.70;;;;;;5028390;28;20930;-75
2022/06/03 03:10:29;;;;;;;0.67;0.67;;;23.70;70.40;;;;;;5028382;28;20491;-75
2022/06/03 03:13:13;;;;;;;0.80;0.80;;;23.40;47.80;;;;;;5029074;28;20478;-75
2022/06/03 03:16:12;;;;;;;0.70;0.70;;;23.40;49.10;;;;;;5026277;28;20412;-74
2022/06/03 03:19:01;;;;;;;0.50;0.50;;;23.40;47.70;;;;;;5026478;28;20445;-74
2022/06/03 03:21:58;;;;;;;0.70;0.70;;;23.40;47.60;;;;;;5027760;28;20452;-75
2022/06/03 03:24:50;;;;;;;0.60;0.60;;;23.40;47.70;;;;;;5028153;28;20416;-74
2022/06/03 03:27:41;;;;;;;0.50;0.50;;;24.10;49.00;;;;;;5027806;28;20991;-75
2022/06/03 03:30:17;;;;;;;0.90;0.63;;;23.60;71.00;;;;;;5028008;28;20411;-75
2022/06/03 03:32:49;;;;;;;2.50;0.60;;;23.40;48.60;;;;;;5026431;28;20538;-74
2022/06/03 03:35:45;;;;;;;0.50;0.50;;;23.40;49.00;;;;;;5027908;28;20416;-75
2022/06/03 03:38:41;;;;;;;0.70;0.70;;;23.30;47.70;;;;;;5028269;28;20956;-74
2022/06/03 03:41:43;;;;;;;0.50;0.50;;;23.40;47.60;;;;;;5027988;28;20747;-75
2022/06/03 03:44:37;;;;;;;0.60;0.50;;;23.40;47.60;;;;;;5026611;28;20455;-75
2022/06/03 03:47:42;;;;;;;0.50;0.50;;;23.40;47.60;;;;;;5027814;28;20403;-75
2022/06/03 03:50:28;;;;;;;0.60;0.60;;;23.20;70.40;;;;;;5027541;28;20529;-74
2022/06/03 03:53:13;;;;;;;1.10;1.10;;;23.40;47.40;;;;;;5027589;28;20446;-74
2022/06/03 03:56:10;;;;;;;0.70;0.70;;;23.40;47.40;;;;;;5025897;28;20560;-75
2022/06/03 03:58:36;;;;;;;0.60;0.57;;;23.40;47.50;;;;;;5025989;28;20489;-74
2022/06/03 04:01:16;;;;;;;0.70;0.70;;;23.30;48.70;;;;;;5026902;28;20443;-75
2022/06/03 04:04:05;;;;;;;0.60;0.60;;;23.30;47.40;;;;;;5027193;28;20193;-75
2022/06/03 04:06:55;;;;;;;0.73;0.60;;;23.40;47.30;;;;;;5027197;28;20420;-75
2022/06/03 04:09:45;;;;;;;0.50;0.50;;;23.40;47.40;;;;;;5012040;28;20957;-75
2022/06/03 04:12:25;;;;;;;0.60;0.50;;;23.30;48.60;;;;;;5007630;28;20421;-75
2022/06/03 04:15:35;;;;;;;0.50;0.50;;;23.40;47.40;;;;;;5019959;28;20748;-75
2022/06/03 04:18:09;;;;;;;0.80;0.80;;;22.70;46.90;;;;;;5037543;28;20488;-74
2022/06/03 04:20:38;;;;;;;2.67;0.63;;;23.40;47.40;;;;;;5027479;28;20803;-74
2022/06/03 04:23:10;;;;;;;0.70;0.70;;;23.40;47.40;;;;;;5027521;28;20455;-75
2022/06/03 04:26:00;;;;;;;0.80;0.80;;;23.30;48.50;;;;;;5027191;28;20466;-75
2022/06/03 04:28:37;;;;;;;0.60;0.60;;;22.70;46.90;;;;;;5027424;28;20427;-74
2022/06/03 04:31:43;;;;;;;0.60;0.50;;;23.40;47.30;;;;;;5026061;28;20438;-75
2022/06/03 04:34:46;;;;;;;0.60;0.60;;;23.40;47.30;;;;;;5027126;28;20518;-75
2022/06/03 04:37:26;;;;;;;0.50;0.50;;;23.40;47.30;;;;;;5027295;28;20472;-75
2022/06/03 04:40:07;;;;;;;0.50;0.50;;;22.40;46.80;;;;;;5026844;28;20450;-75
2022/06/03 04:42:51;;;;;;;0.83;0.80;;;23.40;47.30;;;;;;5027302;28;20444;-75
2022/06/03 04:45:29;;;;;;;0.50;0.50;;;23.30;47.20;;;;;;5026798;28;20424;-75
2022/06/03 04:48:19;;;;;;;0.70;0.50;;;23.70;48.80;;;;;;5025591;28;20427;-75
2022/06/03 04:51:02;;;;;;;0.60;0.60;;;23.30;47.20;;;;;;5026881;28;20436;-75
2022/06/03 04:53:55;;;;;;;0.80;0.80;;;23.40;47.20;;;;;;5026774;28;20443;-75
2022/06/03 04:57:14;;;;;;;0.50;0.50;;;23.50;70.50;;;;;;5026702;28;20440;-75
2022/06/03 04:59:58;;;;;;;1.53;0.53;;;23.30;47.20;;;;;;5026924;28;20420;-75
2022/06/03 05:03:01;;;;;;;0.80;0.60;;;23.20;47.00;;;;;;5026968;28;20470;-75
2022/06/03 05:06:03;;;;;;;0.67;0.67;;;23.30;47.20;;;;;;5026470;28;20419;-74
2022/06/03 05:08:48;;;;;;;3.03;0.80;;;23.40;47.10;;;;;;5026647;28;20426;-76
2022/06/03 05:11:49;;;;;;;1.23;0.50;;;23.30;47.10;;;;;;5023819;28;20552;-75
2022/06/03 05:14:42;;;;;;;0.63;0.50;;;23.30;47.20;;;;;;5053728;28;20420;-75
2022/06/03 05:17:53;;;;;;;0.60;0.60;;;23.30;47.00;;;;;;5027217;28;20424;-75
2022/06/03 05:20:43;;;;;;;0.60;0.60;;;23.20;47.00;;;;;;5029914;28;20450;-75
2022/06/03 05:23:40;;;;;;;0.77;0.77;;;23.30;47.70;;;;;;5030115;28;20542;-75
2022/06/03 05:26:18;;;;;;;0.97;0.70;;;24.00;47.40;;;;;;5063634;28;20441;-75
2022/06/03 05:28:51;;;;;;;0.93;0.77;;;23.40;48.30;;;;;;5028434;28;20522;-71
2022/06/03 05:31:25;;;;;;;1.13;0.60;;;23.30;48.50;;;;;;5041288;28;20481;-74
2022/06/03 05:34:17;;;;;;;0.90;0.70;;;23.30;47.20;;;;;;5038218;28;20454;-73
2022/06/03 05:37:13;;;;;;;0.50;0.50;;;23.40;47.30;;;;;;5030213;28;20435;-73
2022/06/03 05:40:03;;;;;;;1.63;1.53;;;23.30;47.20;;;;;;5028735;28;20439;-73
2022/06/03 05:42:56;;;;;;;0.80;0.80;;;23.30;47.30;;;;;;5027393;28;20595;-73
2022/06/03 05:45:35;;;;;;;0.57;0.57;;;23.30;47.30;;;;;;5026512;28;20411;-73
2022/06/03 05:48:15;;;;;;;0.60;0.60;;;23.30;47.30;;;;;;5028895;28;20415;-73
2022/06/03 05:51:18;;;;;;;0.70;0.70;;;23.30;47.30;;;;;;5028171;28;20510;-73
2022/06/03 05:53:54;;;;;;;0.60;0.60;;;23.40;47.30;;;;;;5026268;28;20414;-73
2022/06/03 05:56:31;;;;;;;0.70;0.50;;;24.10;47.70;;;;;;5025413;28;20434;-73
2022/06/03 05:59:37;;;;;;;0.60;0.60;;;23.40;47.10;;;;;;5030241;28;20408;-73
2022/06/03 06:02:23;;;;;;;1.00;0.90;;;23.30;48.30;;;;;;5036978;28;20455;-73
2022/06/03 06:05:13;;;;;;;0.97;0.60;;;23.40;47.20;;;;;;5027324;28;20432;-73
2022/06/03 06:07:39;;;;;;;1.67;0.60;;;23.40;47.10;;;;;;5027364;28;20416;-73
2022/06/03 06:10:32;;;;;;;0.50;0.50;;;23.60;70.30;;;;;;5027136;28;20455;-73
2022/06/03 06:13:15;;;;;;;0.57;0.57;;;23.40;47.20;;;;;;5028628;28;20193;-73
2022/06/03 06:16:06;;;;;;;1.83;0.60;;;23.40;47.30;;;;;;5025378;28;20423;-73
2022/06/03 06:18:32;;;;;;;0.50;0.50;;;23.40;47.20;;;;;;5026559;28;20434;-73
2022/06/03 06:21:09;;;;;;;0.57;0.57;;;23.50;48.50;;;;;;5028113;28;20459;-73
2022/06/03 06:23:41;;;;;;;0.90;0.70;;;23.40;48.60;;;;;;5027019;28;20196;-73
2022/06/03 06:26:38;;;;;;;2.30;0.80;;;23.30;65.30;;;;;;5027596;28;20427;-75
2022/06/03 06:29:40;;;;;;;0.70;0.60;;;23.30;47.40;;;;;;5025113;28;20424;-74
2022/06/03 06:32:30;;;;;;;0.80;0.80;;;23.50;47.50;;;;;;5031487;28;20499;-73
2022/06/03 06:35:11;;;;;;;1.00;0.80;;;23.60;47.80;;;;;;5026405;28;20412;-71
2022/06/03 06:38:05;;;;;;;0.90;0.90;;;23.50;47.80;;;;;;5028359;28;20416;-70
2022/06/03 06:40:57;;;;;;;0.60;0.60;;;23.50;48.00;;;;;;5025613;28;20439;-71
2022/06/03 06:44:05;;;;;;;0.97;0.80;;;23.60;48.20;;;;;;5028094;28;20963;-71
2022/06/03 06:47:09;;;;;;;0.70;0.70;;;23.60;48.30;;;;;;5044368;28;20798;-72
2022/06/03 06:49:51;;;;;;;0.73;0.73;;;23.40;71.30;;;;;;5022308;28;20414;-70
2022/06/03 06:52:20;;;;;;;1.57;0.90;;;24.20;49.90;;;;;;5015951;28;20547;-70
2022/06/03 06:54:48;;;;;;;0.60;0.60;;;23.70;48.70;;;;;;5014367;28;21008;-70
2022/06/03 06:57:17;;;;;;;0.90;0.90;;;23.70;50.40;;;;;;5022198;28;20420;-70
2022/06/03 07:02:27;;;;;;;0.60;0.60;;;23.30;49.20;;;;;;4350627;26;20505;-77
2022/06/03 07:05:00;;;;;;;0.70;0.70;;;23.70;50.70;;;;;;5029728;28;20461;-76
2022/06/03 07:07:35;;;;;;;1.83;1.00;;;24.10;51.10;;;;;;5047993;28;20430;-76
2022/06/03 07:10:39;;;;;;;0.63;0.63;;;24.00;50.80;;;;;;5046749;28;20441;-76
2022/06/03 07:13:26;;;;;;;0.83;0.67;;;23.80;49.20;;;;;;5046632;28;20435;-75
2022/06/03 07:16:07;;;;;;;5.60;0.97;;;23.80;49.30;;;;;;5043892;28;20438;-76
2022/06/03 07:21:59;;;;;;;0.83;0.83;;;23.90;50.70;;;;;;5049586;28;20518;-75
2022/06/03 07:24:48;;;;;;;0.70;0.60;;;24.30;49.90;;;;;;5046051;28;20446;-77
2022/06/03 07:27:26;;;;;;;0.70;0.60;;;23.90;49.50;;;;;;5045675;28;20504;-77
2022/06/03 07:30:08;;;;;;;0.60;0.60;;;24.70;51.30;;;;;;5047072;28;20457;-76
2022/06/03 07:32:50;;;;;;;0.73;0.73;;;23.90;49.50;;;;;;5049325;28;20521;-77
2022/06/03 07:35:41;;;;;;;0.80;0.80;;;24.40;49.80;;;;;;5048268;28;20473;-77
2022/06/03 07:38:20;;;;;;;0.97;0.97;;;23.90;49.50;;;;;;5047713;28;20438;-76
2022/06/03 07:40:52;;;;;;;0.80;0.70;;;24.40;51.10;;;;;;5045760;28;20520;-76
2022/06/03 07:43:27;;;;;;;0.70;0.70;;;24.10;49.80;;;;;;5048982;28;20458;-76
2022/06/03 07:46:00;;;;;;;0.70;0.70;;;24.10;50.80;;;;;;5047788;28;20407;-76
2022/06/03 07:48:28;;;;;;;0.80;0.63;;;24.40;51.10;;;;;;5047463;28;20946;-76
2022/06/03 07:51:20;;;;;;;0.67;0.67;;;24.10;51.00;;;;;;5047069;28;20455;-76
2022/06/03 07:53:57;;;;;;;5.40;1.00;;;24.10;49.70;;;;;;5035535;28;20442;-75
2022/06/03 07:56:26;;;;;;;1.37;1.10;;;24.30;51.00;;;;;;5046245;28;20423;-76
2022/06/03 07:59:00;;;;;;;1.90;0.63;;;24.00;71.50;;;;;;5046578;28;20999;-76
2022/06/03 08:01:36;;;;;;;1.63;0.70;;;24.00;72.40;;;;;;5030336;28;20433;-76
2022/06/03 08:04:04;;;;;;;0.63;0.63;;;24.20;49.50;;;;;;5046169;28;20571;-75
2022/06/03 08:12:14;;;;;;;1.57;1.40;;;24.80;49.40;;;;;;5051061;28;20433;-82
2022/06/03 08:14:40;;;;;;;1.33;1.23;;;24.20;48.50;;;;;;5051138;28;20460;-82
2022/06/03 08:17:09;;;;;;;1.87;1.17;;;24.20;49.20;;;;;;5050684;28;20437;-83
2022/06/03 08:19:37;;;;;;;1.10;1.10;;;24.70;50.10;;;;;;5034804;28;20744;-85
2022/06/03 08:22:09;;;;;;;1.70;1.10;;;24.10;71.90;;;;;;5046662;28;20917;-85
2022/06/03 08:24:40;;;;;;;1.37;1.10;;;23.90;49.10;;;;;;5046714;28;20426;-84
2022/06/03 08:27:11;;;;;;;0.90;0.80;;;24.30;50.60;;;;;;5050629;28;20414;-84
2022/06/03 08:29:45;;;;;;;1.53;1.10;;;25.60;51.20;;;;;;5050711;28;20438;-84
2022/06/03 08:32:18;;;;;;;1.57;1.20;;;24.60;50.70;;;;;;5047896;28;20438;-83
2022/06/03 08:34:50;;;;;;;0.90;0.90;;;25.10;50.90;;;;;;5060054;28;20411;-84
2022/06/03 08:37:24;;;;;;;3.53;1.10;;;24.30;50.50;;;;;;5055225;28;20528;-83
2022/06/03 08:39:53;;;;;;;1.20;1.00;;;24.20;48.80;;;;;;5046916;28;20439;-83
2022/06/03 08:42:42;;;;;;;1.23;1.23;;;24.40;49.90;;;;;;5049774;28;20472;-84
2022/06/03 08:45:21;;;;;;;1.63;1.27;;;24.30;49.00;;;;;;5048810;28;20440;-82
2022/06/03 08:47:58;;;;;;;1.87;1.10;;;24.50;50.20;;;;;;5050479;28;20425;-84
2022/06/03 08:50:42;;;;;;;3.50;1.47;;;24.70;50.50;;;;;;5049960;28;20851;-80
2022/06/03 08:53:40;;;;;;;1.90;1.37;;;24.30;49.20;;;;;;5042001;28;20426;-83
2022/06/03 08:56:11;;;;;;;2.90;1.20;;;24.30;49.10;;;;;;5049388;28;20418;-84
2022/06/03 08:58:56;;;;;;;1.07;0.87;;;24.40;49.10;;;;;;5054532;28;20403;-81
2022/06/03 09:01:47;;;;;;;1.10;1.10;;;24.30;49.10;;;;;;5053981;28;20411;-83
2022/06/03 09:04:24;;;;;;;1.13;1.00;;;24.30;50.50;;;;;;5037192;28;20835;-83
2022/06/03 09:06:52;;;;;;;1.10;1.00;;;24.30;50.00;;;;;;5027650;28;20453;-83
2022/06/03 09:09:40;;;;;;;1.00;1.00;;;24.30;49.20;;;;;;5055612;28;20435;-83
2022/06/03 09:12:23;;;;;;;6.20;1.00;;;24.30;49.20;;;;;;5051940;28;20434;-82
2022/06/03 09:14:51;;;;;;;1.60;0.73;;;24.40;49.90;;;;;;5034202;28;20945;-82
2022/06/03 09:17:53;;;;;;;1.23;1.23;;;24.80;50.70;;;;;;5049454;28;20423;-81
2022/06/03 09:20:44;;;;;;;1.00;1.00;;;24.70;72.50;;;;;;5056750;28;20975;-83
2022/06/03 09:23:18;;;;;;;3.17;1.13;;;24.50;71.40;;;;;;5045645;28;20519;-82
2022/06/03 09:25:48;;;;;;;1.30;1.20;;;25.10;50.60;;;;;;5052344;28;20410;-82
2022/06/03 09:28:33;;;;;;;1.10;1.00;;;24.50;50.50;;;;;;5052926;28;20405;-82
2022/06/03 09:31:05;;;;;;;1.43;0.83;;;24.40;49.40;;;;;;5034335;28;20450;-81
2022/06/03 09:33:33;;;;;;;1.70;0.93;;;25.20;51.10;;;;;;5052160;28;20582;-82
2022/06/03 09:36:03;;;;;;;2.40;1.47;;;24.50;50.90;;;;;;5052731;28;20465;-81
2022/06/03 09:38:43;;;;;;;2.23;1.33;;;24.50;50.60;;;;;;5052763;28;20415;-82
2022/06/03 09:41:11;;;;;;;1.20;1.10;;;24.50;49.70;;;;;;5048228;28;20429;-80
2022/06/03 09:43:42;;;;;;;6.83;0.90;;;24.90;50.80;;;;;;5030219;28;21045;-80
2022/06/03 09:46:14;;;;;;;2.67;1.00;;;24.50;50.40;;;;;;5046007;28;20436;-78
2022/06/03 09:48:41;;;;;;;1.67;1.00;;;24.90;51.20;;;;;;5049443;28;20439;-80
2022/06/03 09:52:12;;;;;;;1.23;1.13;;;24.60;51.80;;;;;;5046979;28;20517;-81
2022/06/03 09:54:25;;;;;;;1.43;1.10;;;24.70;53.00;;;;;;5030685;28;20427;-79
2022/06/03 09:56:56;;;;;;;1.30;1.20;;;24.50;52.30;;;;;;5042095;28;20510;-82
2022/06/03 09:59:24;;;;;;;1.30;1.20;;;24.60;51.50;;;;;;5046556;28;20511;-79
2022/06/03 10:01:51;;;;;;;2.47;1.20;;;23.80;52.10;;;;;;5040983;28;20415;-80
2022/06/03 10:04:19;;;;;;;3.53;1.30;;;24.70;52.60;;;;;;5045638;28;20464;-79
2022/06/03 10:06:50;;;;;;;1.40;1.30;;;24.40;51.70;;;;;;5036483;28;20526;-81
2022/06/03 10:18:04;;;;;;;3.17;1.70;;;24.30;52.40;;;;;;5058321;28;20402;-82
2022/06/03 10:20:30;;;;;;;1.33;1.23;;;24.40;52.10;;;;;;5056102;28;20438;-82
2022/06/03 10:22:56;;;;;;;1.90;1.80;;;24.60;52.60;;;;;;5058905;28;20451;-83
2022/06/03 10:25:26;;;;;;;2.23;1.47;;;24.40;52.10;;;;;;5037563;28;20176;-84
2022/06/03 10:27:52;;;;;;;1.40;1.30;;;24.30;52.50;;;;;;5052361;28;20849;-83
2022/06/03 10:30:27;;;;;;;1.30;1.20;;;24.00;51.50;;;;;;5053646;28;20479;-82
2022/06/03 10:32:53;;;;;;;2.10;1.37;;;25.20;52.70;;;;;;5050424;28;20175;-82
2022/06/03 10:35:25;;;;;;;1.03;1.03;;;24.50;52.70;;;;;;5048636;28;20469;-84
2022/06/03 10:37:56;;;;;;;1.27;1.17;;;24.60;52.50;;;;;;5048844;28;20275;-81
2022/06/03 10:40:24;;;;;;;1.40;1.30;;;23.70;51.60;;;;;;5050327;28;20555;-80
2022/06/03 10:42:58;;;;;;;2.10;1.10;;;24.50;52.50;;;;;;5052942;28;20512;-80
2022/06/03 10:45:29;;;;;;;1.23;1.13;;;24.50;52.60;;;;;;5054525;28;20501;-80
2022/06/03 10:47:55;;;;;;;1.73;1.27;;;24.50;52.80;;;;;;5036600;28;20563;-80
2022/06/03 10:50:26;;;;;;;1.40;1.30;;;24.50;52.40;;;;;;5051759;28;20467;-79
2022/06/03 11:01:45;;;;;;;3.13;1.00;;;24.50;51.00;;;;;;5049326;28;20464;-79
2022/06/03 11:04:33;;;;;;;1.70;1.60;;;24.50;52.80;;;;;;5052929;28;20465;-80
2022/06/03 11:07:02;;;;;;;1.53;1.33;;;24.60;52.70;;;;;;5052815;28;20439;-80
2022/06/03 11:09:29;;;;;;;4.73;1.47;;;24.40;52.00;;;;;;5051459;28;20442;-80
2022/06/03 11:12:01;;;;;;;3.63;1.27;;;24.60;53.10;;;;;;5036316;28;20434;-79
2022/06/03 11:14:38;;;;;;;1.23;1.23;;;24.80;52.70;;;;;;5052035;28;20411;-79
2022/06/03 11:17:16;;;;;;;3.27;1.50;;;24.50;50.20;;;;;;5049448;28;20418;-80
2022/06/03 11:19:47;;;;;;;2.80;1.30;;;24.50;50.30;;;;;;5053954;28;20438;-82
2022/06/03 11:22:18;;;;;;;1.30;1.30;;;24.50;52.50;;;;;;5057680;28;20415;-80
2022/06/03 11:24:50;;;;;;;4.20;1.03;;;24.50;70.50;;;;;;5053435;28;20464;-81
2022/06/03 11:27:20;;;;;;;3.70;1.43;;;24.40;52.60;;;;;;5050513;28;20498;-81
2022/06/03 11:29:48;;;;;;;1.17;1.17;;;24.40;52.70;;;;;;5051625;28;20439;-80
2022/06/03 11:32:17;;;;;;;1.77;1.20;;;24.60;70.30;;;;;;5052629;28;20427;-80
2022/06/03 11:34:58;;;;;;;3.23;1.20;;;24.30;52.70;;;;;;5053374;28;20501;-80
2022/06/03 11:37:34;;;;;;;8.00;1.63;;;24.30;52.50;;;;;;5053416;28;20404;-81
2022/06/03 11:40:10;;;;;;;1.27;1.27;;;24.60;71.10;;;;;;5049292;28;20541;-80
2022/06/03 11:42:42;;;;;;;6.30;1.30;;;24.40;52.50;;;;;;5051871;28;20454;-80
2022/06/03 11:45:13;;;;;;;1.00;1.00;;;24.40;53.10;;;;;;5039136;28;20415;-80
2022/06/03 11:47:48;;;;;;;1.50;1.30;;;24.40;52.70;;;;;;5050842;28;20399;-80
2022/06/03 11:50:17;;;;;;;1.57;1.37;;;24.30;52.90;;;;;;5050286;28;20456;-79
2022/06/03 11:52:42;;;;;;;7.00;1.47;;;24.90;53.20;;;;;;5032435;28;20415;-79
2022/06/03 11:55:10;;;;;;;4.90;1.33;;;;;;;;;;5049618;28;20446;-79
2022/06/03 11:57:44;;;;;;;1.90;1.50;;;24.40;50.00;;;;;;5054293;28;20211;-80
2022/06/03 12:00:19;;;;;;;1.60;1.60;;;24.60;53.10;;;;;;5054130;28;20462;-79
2022/06/03 12:02:53;;;;;;;2.00;1.30;;;24.40;52.60;;;;;;5050064;28;20453;-79
2022/06/03 12:05:25;;;;;;;3.90;1.50;;;24.40;50.50;;;;;;5049824;28;20875;-79
2022/06/03 12:08:01;;;;;;;1.60;1.60;;;24.40;52.90;;;;;;5049427;28;20502;-79
2022/06/03 12:11:08;;;;;;;2.00;1.60;;;24.40;50.70;;;;;;5049982;28;20476;-79
2022/06/03 12:13:34;;;;;;;3.83;1.40;;;24.40;50.50;;;;;;5028305;28;20985;-79
2022/06/03 12:16:04;;;;;;;1.77;1.50;;;24.40;52.90;;;;;;5046994;28;20493;-79
2022/06/03 12:18:37;;;;;;;1.30;1.30;;;24.50;52.70;;;;;;5049746;28;20183;-79
2022/06/03 12:21:07;;;;;;;2.93;1.60;;;24.40;50.80;;;;;;5049503;28;20441;-79
2022/06/03 12:23:38;;;;;;;1.30;1.30;;;24.40;52.90;;;;;;5048031;28;20855;-80
2022/06/03 12:26:17;;;;;;;1.27;1.27;;;24.40;53.20;;;;;;5050179;28;20414;-80
2022/06/03 12:28:47;;;;;;;1.40;1.40;;;25.10;54.80;;;;;;5036281;28;20426;-79
2022/06/03 12:31:40;;;;;;;1.20;1.20;;;24.30;53.10;;;;;;5053749;28;20465;-80
2022/06/03 12:34:08;;;;;;;1.83;1.60;;;24.90;53.10;;;;;;5042180;28;20431;-80
2022/06/03 12:36:50;;;;;;;1.90;1.57;;;24.90;53.50;;;;;;5049188;28;20774;-80
2022/06/03 12:39:24;;;;;;;4.53;1.70;;;24.40;51.00;;;;;;5049352;28;20506;-79
2022/06/03 12:41:49;;;;;;;3.13;1.57;;;24.30;50.60;;;;;;5049332;28;20395;-80
2022/06/03 12:44:40;;;;;;;2.00;1.90;;;24.40;53.30;;;;;;5038749;28;20661;-80
2022/06/03 12:47:31;;;;;;;1.40;1.30;;;24.30;50.80;;;;;;5056983;28;20254;-79
2022/06/03 12:50:06;;;;;;;2.00;1.90;;;24.50;53.00;;;;;;5047542;28;20450;-79
2022/06/03 12:52:33;;;;;;;2.10;1.50;;;24.50;50.90;;;;;;5049688;28;20909;-79
2022/06/03 12:55:13;;;;;;;2.17;1.97;;;24.70;53.10;;;;;;5050004;28;20481;-80
2022/06/03 12:57:45;;;;;;;2.00;1.90;;;24.40;50.90;;;;;;5031776;28;20426;-80
2022/06/03 13:00:15;;;;;;;1.37;1.37;;;24.40;53.40;;;;;;5049624;28;20444;-79
2022/06/03 13:02:51;;;;;;;1.60;1.50;;;24.50;53.30;;;;;;5049523;28;20454;-82
2022/06/03 13:05:52;;;;;;;1.60;1.30;;;24.50;53.20;;;;;;5031309;28;20422;-79
2022/06/03 13:08:26;;;;;;;1.80;1.50;;;24.40;51.20;;;;;;5045250;28;20490;-79
2022/06/03 13:11:04;;;;;;;1.63;1.53;;;24.40;53.60;;;;;;5049244;28;20430;-80
2022/06/03 13:13:30;;;;;;;1.30;1.30;;;24.50;53.90;;;;;;5049212;28;20905;-79
2022/06/03 13:16:19;;;;;;;1.97;1.87;;;25.00;53.90;;;;;;5049357;28;20422;-80
2022/06/03 13:18:47;;;;;;;1.67;1.57;;;24.50;71.00;;;;;;5049529;28;20238;-79
2022/06/03 13:21:20;;;;;;;1.67;1.57;;;24.40;53.60;;;;;;5066072;28;20414;-79
2022/06/03 13:23:51;;;;;;;1.70;1.70;;;24.50;51.60;;;;;;5052949;28;20487;-80
2022/06/03 13:26:23;;;;;;;1.80;1.70;;;24.40;53.60;;;;;;5049406;28;20467;-79
2022/06/03 13:28:59;;;;;;;9.60;2.00;;;24.70;71.40;;;;;;5021041;28;20442;-79
2022/06/03 13:31:40;;;;;;;2.43;1.70;;;24.40;51.50;;;;;;5044975;28;20497;-80
2022/06/03 13:34:08;;;;;;;1.80;1.70;;;24.90;51.70;;;;;;5048968;28;20918;-79
2022/06/03 13:36:47;;;;;;;3.20;1.63;;;24.70;53.70;;;;;;5048401;28;20458;-80
2022/06/03 13:39:24;;;;;;;1.47;1.47;;;24.40;51.50;;;;;;5049613;28;20437;-79
2022/06/03 13:45:09;;;;;;;2.57;1.80;;;24.30;53.80;;;;;;5051438;28;20425;-81
2022/06/03 13:47:42;;;;;;;3.07;1.60;;;24.30;53.80;;;;;;5046901;28;20933;-81
2022/06/03 13:50:14;;;;;;;1.73;1.63;;;24.40;54.60;;;;;;5046536;28;20442;-80
2022/06/03 13:52:53;;;;;;;1.67;1.57;;;24.50;76.30;;;;;;5046976;28;20508;-81
2022/06/03 13:55:37;;;;;;;1.90;1.80;;;24.30;77.10;;;;;;5054136;28;20425;-81
2022/06/03 13:58:23;;;;;;;1.67;1.57;;;24.50;54.50;;;;;;5056184;28;20464;-81
2022/06/03 14:00:54;;;;;;;3.30;1.70;;;24.50;54.70;;;;;;5055560;28;20443;-80
2022/06/03 14:03:27;;;;;;;1.60;1.50;;;24.10;54.20;;;;;;5053741;28;20543;-80
2022/06/03 14:06:17;;;;;;;1.50;1.50;;;24.60;76.40;;;;;;5051056;28;20500;-82
2022/06/03 14:08:46;;;;;;;4.10;2.20;;;24.10;53.60;;;;;;5049766;28;20585;-80
2022/06/03 14:11:26;;;;;;;10.40;2.97;;;24.50;54.30;;;;;;5050768;28;20480;-80
2022/06/03 14:14:01;;;;;;;1.97;1.87;;;24.50;54.50;;;;;;5049227;28;20457;-79
2022/06/03 14:16:49;;;;;;;1.50;1.40;;;22.80;51.40;;;;;;5043954;28;20436;-79
2022/06/03 14:19:19;;;;;;;1.63;1.63;;;24.50;54.70;;;;;;5048323;28;20438;-81
2022/06/03 14:21:49;;;;;;;1.50;1.50;;;24.50;54.40;;;;;;5043148;28;20809;-80
2022/06/03 14:24:35;;;;;;;1.97;1.90;;;24.50;54.40;;;;;;5052139;28;20451;-80
2022/06/03 14:27:06;;;;;;;1.63;1.53;;;25.00;54.80;;;;;;5049634;28;20430;-80
2022/06/03 14:30:02;;;;;;;1.73;1.73;;;24.70;77.30;;;;;;5035044;28;20442;-82
2022/06/03 14:32:34;;;;;;;2.30;1.50;;;24.50;54.70;;;;;;5007535;28;20430;-79